createdAt,value
2018-07-10T00:00:33.364Z,16.45
2018-07-10T00:01:33.351Z,16.4
2018-07-10T00:02:33.353Z,16.4
2018-07-10T00:03:33.333Z,16.35
2018-07-10T00:04:33.321Z,16.37
2018-07-10T00:05:33.043Z,16.37
2018-07-10T00:06:32.764Z,16.48
2018-07-10T00:07:32.874Z,16.41
2018-07-10T00:08:32.745Z,16.31
2018-07-10T00:09:32.988Z,16.41
2018-07-10T00:10:33.252Z,16.33
2018-07-10T00:11:32.973Z,16.27
2018-07-10T00:12:32.954Z,16.27
2018-07-10T00:13:32.682Z,16.27
2018-07-10T00:14:33.190Z,16.27
2018-07-10T00:15:32.921Z,16.27
2018-07-10T00:16:33.176Z,16.31
2018-07-10T00:17:32.628Z,16.38
2018-07-10T00:18:33.151Z,16.34
2018-07-10T00:19:32.615Z,16.33
2018-07-10T00:20:32.857Z,16.41
2018-07-10T00:21:33.109Z,16.37
2018-07-10T00:22:32.838Z,16.38
2018-07-10T00:23:32.818Z,16.37
2018-07-10T00:24:32.805Z,16.4
2018-07-10T00:25:32.798Z,16.37
2018-07-10T00:26:32.781Z,16.38
2018-07-10T00:27:33.034Z,16.27
2018-07-10T00:28:32.762Z,16.35
2018-07-10T00:29:32.491Z,16.27
2018-07-10T00:30:32.738Z,16.27
2018-07-10T00:31:32.985Z,16.3
2018-07-10T00:32:32.975Z,16.25
2018-07-10T00:33:32.961Z,16.3
2018-07-10T00:34:32.947Z,16.31
2018-07-10T00:35:32.932Z,16.33
2018-07-10T00:36:32.927Z,16.31
2018-07-10T00:37:32.922Z,16.4
2018-07-10T00:38:32.372Z,16.27
2018-07-10T00:39:32.892Z,16.3
2018-07-10T00:40:32.608Z,16.26
2018-07-10T00:41:32.864Z,16.18
2018-07-10T00:42:32.592Z,16.23
2018-07-10T00:43:32.842Z,16.15
2018-07-10T00:44:32.563Z,16.18
2018-07-10T00:45:32.282Z,16.22
2018-07-10T00:46:32.535Z,16.14
2018-07-10T00:47:32.794Z,16.22
2018-07-10T00:48:32.509Z,16.15
2018-07-10T00:49:32.503Z,16.16
2018-07-10T00:50:32.226Z,16.11
2018-07-10T00:51:32.214Z,16.16
2018-07-10T00:52:32.730Z,16.16
2018-07-10T00:53:32.725Z,16.15
2018-07-10T00:54:32.454Z,16.15
2018-07-10T00:55:32.425Z,16.16
2018-07-10T00:56:32.674Z,16.14
2018-07-10T00:57:32.405Z,16.14
2018-07-10T00:58:32.649Z,16.11
2018-07-10T00:59:32.644Z,16.07
2018-07-10T01:00:32.105Z,16.07
2018-07-10T01:01:32.367Z,16.09
2018-07-10T01:02:32.604Z,16.06
2018-07-10T01:03:32.595Z,16.01
2018-07-10T01:04:32.629Z,16.01
2018-07-10T01:05:32.034Z,16.06
2018-07-10T01:06:32.284Z,15.99
2018-07-10T01:07:32.544Z,15.88
2018-07-10T01:08:32.261Z,15.86
2018-07-10T01:09:31.991Z,15.94
2018-07-10T01:10:32.243Z,15.93
2018-07-10T01:11:32.490Z,15.92
2018-07-10T01:12:32.215Z,15.94
2018-07-10T01:13:31.939Z,15.88
2018-07-10T01:14:31.929Z,15.94
2018-07-10T01:15:32.440Z,15.94
2018-07-10T01:16:32.189Z,15.88
2018-07-10T01:17:32.417Z,16.04
2018-07-10T01:18:32.136Z,15.94
2018-07-10T01:19:32.411Z,16.04
2018-07-10T01:20:32.113Z,15.94
2018-07-10T01:21:32.380Z,15.94
2018-07-10T01:22:32.355Z,15.93
2018-07-10T01:23:32.083Z,15.94
2018-07-10T01:24:31.805Z,15.93
2018-07-10T01:25:32.050Z,15.88
2018-07-10T01:26:32.298Z,15.92
2018-07-10T01:27:32.296Z,15.85
2018-07-10T01:28:32.009Z,15.88
2018-07-10T01:29:32.266Z,15.92
2018-07-10T01:30:32.257Z,15.81
2018-07-10T01:31:31.971Z,15.79
2018-07-10T01:32:31.701Z,15.89
2018-07-10T01:33:31.960Z,15.93
2018-07-10T01:34:32.199Z,15.93
2018-07-10T01:35:31.658Z,15.88
2018-07-10T01:36:31.646Z,15.82
2018-07-10T01:37:31.897Z,15.93
2018-07-10T01:38:32.160Z,15.84
2018-07-10T01:39:31.876Z,15.84
2018-07-10T01:40:32.122Z,15.88
2018-07-10T01:41:31.847Z,15.84
2018-07-10T01:42:31.836Z,15.78
2018-07-10T01:43:31.830Z,15.72
2018-07-10T01:44:31.813Z,15.81
2018-07-10T01:45:31.800Z,15.76
2018-07-10T01:46:31.779Z,15.74
2018-07-10T01:47:31.774Z,15.67
2018-07-10T01:48:32.042Z,15.75
2018-07-10T01:49:31.688Z,15.67
2018-07-10T01:50:31.995Z,15.7
2018-07-10T01:51:31.988Z,15.72
2018-07-10T01:52:31.975Z,15.76
2018-07-10T01:53:31.955Z,15.72
2018-07-10T01:54:31.945Z,15.72
2018-07-10T01:55:31.944Z,15.66
2018-07-10T01:56:31.760Z,15.75
2018-07-10T01:57:31.915Z,15.72
2018-07-10T01:58:31.371Z,15.72
2018-07-10T01:59:31.889Z,15.74
2018-07-10T02:00:31.874Z,15.72
2018-07-10T02:01:31.856Z,15.78
2018-07-10T02:02:31.583Z,15.74
2018-07-10T02:03:31.841Z,15.68
2018-07-10T02:04:31.829Z,15.7
2018-07-10T02:05:31.277Z,15.68
2018-07-10T02:06:31.536Z,15.74
2018-07-10T02:07:31.524Z,15.72
2018-07-10T02:08:31.508Z,15.63
2018-07-10T02:09:31.757Z,15.67
2018-07-10T02:10:31.745Z,15.7
2018-07-10T02:11:31.733Z,15.7
2018-07-10T02:12:31.198Z,15.74
2018-07-10T02:13:31.753Z,15.63
2018-07-10T02:14:31.433Z,15.61
2018-07-10T02:15:31.151Z,15.61
2018-07-10T02:16:31.138Z,15.7
2018-07-10T02:17:31.660Z,15.72
2018-07-10T02:18:31.377Z,15.64
2018-07-10T02:19:31.109Z,15.67
2018-07-10T02:20:31.095Z,15.59
2018-07-10T02:21:31.613Z,15.67
2018-07-10T02:22:31.326Z,15.64
2018-07-10T02:23:31.581Z,15.63
2018-07-10T02:24:31.307Z,15.72
2018-07-10T02:25:31.292Z,15.6
2018-07-10T02:26:31.543Z,15.61
2018-07-10T02:27:31.263Z,15.51
2018-07-10T02:28:31.247Z,15.42
2018-07-10T02:29:30.980Z,15.59
2018-07-10T02:30:31.238Z,15.46
2018-07-10T02:31:31.215Z,15.57
2018-07-10T02:32:31.473Z,15.54
2018-07-10T02:33:31.454Z,15.43
2018-07-10T02:34:31.452Z,15.43
2018-07-10T02:35:31.166Z,15.49
2018-07-10T02:36:31.148Z,15.56
2018-07-10T02:37:31.138Z,15.41
2018-07-10T02:38:31.124Z,15.49
2018-07-10T02:39:31.113Z,15.48
2018-07-10T02:40:31.093Z,15.42
2018-07-10T02:41:31.089Z,15.49
2018-07-10T02:42:31.339Z,15.59
2018-07-10T02:43:31.319Z,15.49
2018-07-10T02:44:31.314Z,15.49
2018-07-10T02:45:31.298Z,15.45
2018-07-10T02:46:31.295Z,15.39
2018-07-10T02:47:30.784Z,15.43
2018-07-10T02:48:30.999Z,15.35
2018-07-10T02:49:30.982Z,15.36
2018-07-10T02:50:31.234Z,15.28
2018-07-10T02:51:30.958Z,15.28
2018-07-10T02:52:30.948Z,15.27
2018-07-10T02:53:30.662Z,15.2
2018-07-10T02:54:30.916Z,15.15
2018-07-10T02:55:30.900Z,15.13
2018-07-10T02:56:30.889Z,15.13
2018-07-10T02:57:30.615Z,15.12
2018-07-10T02:58:30.868Z,15.13
2018-07-10T02:59:30.851Z,15.12
2018-07-10T03:00:30.577Z,15.09
2018-07-10T03:01:31.089Z,14.98
2018-07-10T03:02:31.090Z,14.95
2018-07-10T03:03:31.063Z,14.93
2018-07-10T03:04:30.519Z,14.94
2018-07-10T03:05:30.771Z,14.99
2018-07-10T03:06:30.762Z,14.87
2018-07-10T03:07:30.749Z,14.83
2018-07-10T03:08:31.006Z,14.78
2018-07-10T03:09:30.469Z,14.81
2018-07-10T03:10:30.992Z,14.72
2018-07-10T03:11:30.965Z,14.81
2018-07-10T03:12:30.950Z,14.72
2018-07-10T03:13:30.946Z,14.71
2018-07-10T03:14:30.664Z,14.68
2018-07-10T03:15:30.653Z,14.69
2018-07-10T03:16:30.891Z,14.71
2018-07-10T03:17:30.615Z,14.62
2018-07-10T03:18:30.600Z,14.57
2018-07-10T03:19:30.851Z,14.54
2018-07-10T03:20:30.856Z,14.49
2018-07-10T03:21:30.295Z,14.61
2018-07-10T03:22:30.814Z,14.53
2018-07-10T03:23:30.546Z,14.47
2018-07-10T03:24:30.519Z,14.5
2018-07-10T03:25:30.516Z,14.53
2018-07-10T03:26:30.752Z,14.47
2018-07-10T03:27:30.739Z,14.5
2018-07-10T03:28:30.729Z,14.44
2018-07-10T03:29:30.447Z,14.47
2018-07-10T03:30:30.439Z,14.43
2018-07-10T03:31:30.707Z,14.42
2018-07-10T03:32:30.413Z,14.42
2018-07-10T03:33:30.669Z,14.44
2018-07-10T03:34:30.386Z,14.47
2018-07-10T03:35:30.638Z,14.44
2018-07-10T03:36:30.946Z,14.44
2018-07-10T03:37:30.344Z,14.38
2018-07-10T03:38:30.591Z,14.46
2018-07-10T03:39:30.583Z,14.49
2018-07-10T03:40:30.038Z,14.49
2018-07-10T03:41:30.303Z,14.47
2018-07-10T03:42:30.012Z,14.44
2018-07-10T03:43:30.261Z,14.44
2018-07-10T03:44:29.981Z,14.46
2018-07-10T03:45:30.507Z,14.39
2018-07-10T03:46:30.536Z,14.47
2018-07-10T03:47:30.468Z,14.38
2018-07-10T03:48:30.457Z,14.46
2018-07-10T03:49:30.388Z,14.44
2018-07-10T03:50:29.901Z,14.49
2018-07-10T03:51:30.148Z,14.5
2018-07-10T03:52:30.406Z,14.47
2018-07-10T03:53:30.123Z,14.49
2018-07-10T03:54:30.116Z,14.52
2018-07-10T03:55:30.363Z,14.61
2018-07-10T03:56:30.347Z,14.52
2018-07-10T03:57:30.069Z,14.6
2018-07-10T03:58:30.326Z,14.53
2018-07-10T03:59:30.308Z,14.52
2018-07-10T04:00:30.032Z,14.64
2018-07-10T04:01:30.033Z,14.52
2018-07-10T04:02:30.276Z,14.6
2018-07-10T04:03:29.990Z,14.62
2018-07-10T04:04:29.714Z,14.57
2018-07-10T04:05:30.227Z,14.61
2018-07-10T04:06:30.214Z,14.49
2018-07-10T04:07:30.197Z,14.5
2018-07-10T04:08:30.130Z,14.52
2018-07-10T04:09:29.918Z,14.53
2018-07-10T04:10:30.162Z,14.49
2018-07-10T04:11:30.146Z,14.6
2018-07-10T04:12:29.877Z,14.53
2018-07-10T04:13:30.129Z,14.52
2018-07-10T04:14:29.852Z,14.52
2018-07-10T04:15:29.883Z,14.54
2018-07-10T04:16:30.077Z,14.46
2018-07-10T04:17:29.541Z,14.5
2018-07-10T04:18:29.787Z,14.47
2018-07-10T04:19:29.776Z,14.47
2018-07-10T04:20:29.761Z,14.47
2018-07-10T04:21:29.755Z,14.49
2018-07-10T04:22:29.736Z,14.47
2018-07-10T04:23:29.722Z,14.47
2018-07-10T04:24:29.711Z,14.47
2018-07-10T04:25:29.955Z,14.49
2018-07-10T04:26:29.676Z,14.46
2018-07-10T04:27:29.408Z,14.46
2018-07-10T04:28:29.652Z,14.44
2018-07-10T04:29:29.645Z,14.5
2018-07-10T04:30:29.891Z,14.5
2018-07-10T04:31:29.888Z,14.5
2018-07-10T04:32:29.874Z,14.49
2018-07-10T04:33:29.592Z,14.47
2018-07-10T04:34:29.314Z,14.44
2018-07-10T04:35:29.558Z,14.47
2018-07-10T04:36:29.549Z,14.49
2018-07-10T04:37:29.803Z,14.46
2018-07-10T04:38:29.787Z,14.49
2018-07-10T04:39:29.779Z,14.47
2018-07-10T04:40:29.749Z,14.6
2018-07-10T04:41:29.742Z,14.56
2018-07-10T04:42:29.783Z,14.64
2018-07-10T04:43:29.460Z,14.67
2018-07-10T04:44:29.436Z,14.68
2018-07-10T04:45:29.435Z,14.67
2018-07-10T04:46:29.416Z,14.78
2018-07-10T04:47:29.146Z,14.84
2018-07-10T04:48:29.392Z,14.87
2018-07-10T04:49:29.853Z,14.87
2018-07-10T04:50:29.362Z,14.88
2018-07-10T04:51:29.340Z,14.91
2018-07-10T04:52:29.338Z,14.84
2018-07-10T04:53:29.321Z,14.94
2018-07-10T04:54:29.565Z,14.9
2018-07-10T04:55:29.049Z,14.86
2018-07-10T04:56:29.539Z,14.87
2018-07-10T04:57:28.997Z,14.86
2018-07-10T04:58:29.515Z,14.86
2018-07-10T04:59:29.242Z,14.78
2018-07-10T05:00:29.495Z,14.74
2018-07-10T05:01:29.477Z,14.75
2018-07-10T05:02:29.200Z,14.78
2018-07-10T05:03:29.447Z,14.81
2018-07-10T05:04:28.909Z,14.74
2018-07-10T05:05:29.158Z,14.8
2018-07-10T05:06:29.412Z,14.88
2018-07-10T05:07:29.393Z,14.86
2018-07-10T05:08:29.389Z,14.81
2018-07-10T05:09:28.846Z,14.91
2018-07-10T05:10:29.090Z,14.93
2018-07-10T05:11:29.069Z,15.08
2018-07-10T05:12:29.327Z,15.02
2018-07-10T05:13:29.329Z,15.01
2018-07-10T05:14:28.769Z,14.94
2018-07-10T05:15:29.290Z,15.03
2018-07-10T05:16:28.745Z,15.02
2018-07-10T05:17:29.260Z,15.09
2018-07-10T05:18:29.260Z,15.06
2018-07-10T05:19:28.705Z,15.17
2018-07-10T05:20:28.960Z,15.06
2018-07-10T05:21:29.211Z,15.13
2018-07-10T05:22:29.191Z,15.15
2018-07-10T05:23:28.659Z,15.23
2018-07-10T05:24:28.908Z,15.23
2018-07-10T05:25:28.887Z,15.2
2018-07-10T05:26:28.882Z,15.24
2018-07-10T05:27:28.864Z,15.24
2018-07-10T05:28:29.115Z,15.27
2018-07-10T05:29:28.847Z,15.31
2018-07-10T05:30:29.085Z,15.26
2018-07-10T05:31:29.076Z,15.33
2018-07-10T05:32:28.800Z,15.31
2018-07-10T05:33:29.052Z,15.33
2018-07-10T05:34:28.778Z,15.36
2018-07-10T05:35:28.761Z,15.36
2018-07-10T05:36:29.009Z,15.45
2018-07-10T05:37:28.738Z,15.45
2018-07-10T05:38:28.718Z,15.35
2018-07-10T05:39:28.709Z,15.51
2018-07-10T05:40:28.965Z,15.46
2018-07-10T05:41:28.947Z,15.57
2018-07-10T05:42:28.928Z,15.49
2018-07-10T05:43:28.655Z,15.52
2018-07-10T05:44:28.645Z,15.51
2018-07-10T05:45:28.680Z,15.54
2018-07-10T05:46:28.844Z,15.63
2018-07-10T05:47:28.869Z,15.56
2018-07-10T05:48:28.592Z,15.6
2018-07-10T05:49:28.516Z,15.64
2018-07-10T05:50:28.565Z,15.67
2018-07-10T05:51:28.816Z,15.64
2018-07-10T05:52:28.279Z,15.67
2018-07-10T05:53:28.554Z,15.68
2018-07-10T05:54:28.786Z,15.75
2018-07-10T05:55:28.768Z,15.74
2018-07-10T05:56:28.749Z,15.68
2018-07-10T05:57:28.475Z,15.74
2018-07-10T05:58:28.837Z,15.75
2018-07-10T05:59:28.461Z,15.75
2018-07-10T06:00:28.713Z,15.82
2018-07-10T06:01:28.718Z,15.84
2018-07-10T06:02:28.438Z,15.85
2018-07-10T06:03:28.422Z,15.79
2018-07-10T06:04:28.729Z,15.85
2018-07-10T06:05:28.642Z,15.85
2018-07-10T06:06:28.362Z,15.72
2018-07-10T06:07:28.090Z,15.67
2018-07-10T06:08:28.602Z,15.68
2018-07-10T06:09:28.328Z,15.75
2018-07-10T06:10:28.353Z,15.76
2018-07-10T06:11:28.306Z,15.7
2018-07-10T06:12:28.295Z,15.74
2018-07-10T06:13:28.665Z,15.74
2018-07-10T06:14:28.546Z,15.74
2018-07-10T06:15:28.533Z,15.81
2018-07-10T06:16:28.542Z,15.82
2018-07-10T06:17:28.228Z,15.84
2018-07-10T06:18:28.226Z,15.86
2018-07-10T06:19:27.934Z,15.79
2018-07-10T06:20:28.457Z,15.79
2018-07-10T06:21:28.178Z,15.84
2018-07-10T06:22:28.666Z,15.88
2018-07-10T06:23:28.158Z,15.94
2018-07-10T06:24:28.141Z,15.93
2018-07-10T06:25:28.397Z,15.92
2018-07-10T06:26:28.376Z,16.04
2018-07-10T06:27:28.105Z,16.12
2018-07-10T06:28:28.081Z,16.09
2018-07-10T06:29:28.351Z,16.11
2018-07-10T06:30:28.391Z,16.22
2018-07-10T06:31:28.316Z,16.16
2018-07-10T06:32:28.040Z,16.14
2018-07-10T06:33:28.302Z,16.18
2018-07-10T06:34:28.020Z,16.23
2018-07-10T06:35:28.273Z,16.16
2018-07-10T06:36:28.255Z,16.26
2018-07-10T06:37:27.976Z,16.25
2018-07-10T06:38:27.967Z,16.31
2018-07-10T06:39:27.689Z,16.33
2018-07-10T06:40:27.938Z,16.33
2018-07-10T06:41:27.925Z,16.31
2018-07-10T06:42:28.190Z,16.26
2018-07-10T06:43:28.175Z,16.26
2018-07-10T06:44:28.157Z,16.2
2018-07-10T06:45:27.879Z,16.25
2018-07-10T06:46:28.127Z,16.18
2018-07-10T06:47:27.853Z,16.18
2018-07-10T06:48:28.108Z,16.26
2018-07-10T06:49:27.834Z,16.26
2018-07-10T06:50:27.819Z,16.22
2018-07-10T06:51:27.811Z,16.23
2018-07-10T06:52:27.682Z,16.22
2018-07-10T06:53:28.587Z,16.18
2018-07-10T06:54:27.773Z,16.18
2018-07-10T06:55:27.764Z,16.18
2018-07-10T06:56:27.750Z,16.27
2018-07-10T06:57:27.744Z,16.27
2018-07-10T06:58:27.457Z,16.26
2018-07-10T06:59:27.975Z,16.33
2018-07-10T07:00:27.443Z,16.26
2018-07-10T07:01:27.683Z,16.34
2018-07-10T07:02:27.933Z,16.31
2018-07-10T07:03:27.663Z,16.34
2018-07-10T07:04:27.651Z,16.34
2018-07-10T07:05:27.639Z,16.33
2018-07-10T07:06:27.887Z,16.2
2018-07-10T07:07:27.626Z,16.18
2018-07-10T07:08:27.607Z,16.18
2018-07-10T07:09:27.590Z,16.2
2018-07-10T07:10:27.841Z,16.15
2018-07-10T07:11:27.568Z,16.14
2018-07-10T07:12:27.814Z,16.22
2018-07-10T07:13:27.807Z,16.14
2018-07-10T07:14:27.265Z,16.07
2018-07-10T07:15:27.252Z,16.14
2018-07-10T07:16:27.512Z,16.14
2018-07-10T07:17:27.223Z,16.14
2018-07-10T07:18:27.745Z,16.15
2018-07-10T07:19:27.465Z,16.12
2018-07-10T07:20:27.730Z,15.99
2018-07-10T07:21:27.439Z,16.03
2018-07-10T07:22:27.726Z,16.01
2018-07-10T07:23:27.679Z,15.89
2018-07-10T07:24:27.404Z,15.88
2018-07-10T07:25:27.657Z,15.93
2018-07-10T07:26:27.646Z,15.85
2018-07-10T07:27:27.639Z,15.84
2018-07-10T07:28:27.369Z,15.68
2018-07-10T07:29:27.638Z,15.82
2018-07-10T07:30:27.072Z,15.72
2018-07-10T07:31:27.577Z,15.72
2018-07-10T07:32:27.310Z,15.67
2018-07-10T07:33:27.298Z,15.7
2018-07-10T07:34:27.763Z,15.7
2018-07-10T07:35:27.264Z,15.72
2018-07-10T07:36:27.518Z,15.78
2018-07-10T07:37:27.502Z,15.78
2018-07-10T07:38:27.237Z,15.88
2018-07-10T07:39:27.477Z,15.93
2018-07-10T07:40:26.939Z,15.92
2018-07-10T07:41:27.199Z,15.92
2018-07-10T07:42:27.440Z,15.75
2018-07-10T07:43:26.901Z,15.82
2018-07-10T07:44:27.819Z,15.67
2018-07-10T07:45:27.148Z,15.72
2018-07-10T07:46:27.128Z,15.74
2018-07-10T07:47:27.381Z,15.74
2018-07-10T07:48:27.104Z,15.7
2018-07-10T07:49:27.106Z,15.7
2018-07-10T07:50:27.349Z,15.57
2018-07-10T07:51:27.328Z,15.52
2018-07-10T07:52:27.069Z,15.6
2018-07-10T07:53:27.077Z,15.59
2018-07-10T07:54:27.291Z,15.6
2018-07-10T07:55:27.282Z,15.61
2018-07-10T07:56:27.005Z,15.64
2018-07-10T07:57:27.254Z,15.57
2018-07-10T07:58:27.389Z,15.63
2018-07-10T07:59:27.270Z,15.6
2018-07-10T08:00:27.289Z,15.57
2018-07-10T08:01:26.938Z,15.52
2018-07-10T08:02:26.938Z,15.45
2018-07-10T08:03:27.201Z,15.42
2018-07-10T08:04:26.896Z,15.36
2018-07-10T08:05:27.162Z,15.35
2018-07-10T08:06:26.610Z,15.21
2018-07-10T08:07:27.124Z,15.23
2018-07-10T08:08:27.118Z,15.21
2018-07-10T08:09:26.840Z,15.15
2018-07-10T08:10:26.554Z,15.12
2018-07-10T08:11:27.086Z,15.12
2018-07-10T08:12:27.104Z,15.11
2018-07-10T08:13:27.045Z,15.11
2018-07-10T08:14:26.500Z,15.03
2018-07-10T08:15:26.760Z,14.99
2018-07-10T08:16:27.012Z,15.06
2018-07-10T08:17:26.741Z,15.03
2018-07-10T08:18:26.449Z,15.03
2018-07-10T08:19:26.976Z,15.05
2018-07-10T08:20:26.953Z,15.02
2018-07-10T08:21:26.680Z,14.94
2018-07-10T08:22:26.939Z,14.87
2018-07-10T08:23:26.650Z,14.91
2018-07-10T08:24:26.667Z,14.93
2018-07-10T08:25:26.949Z,14.93
2018-07-10T08:26:26.616Z,14.91
2018-07-10T08:27:26.603Z,14.87
2018-07-10T08:28:26.853Z,14.8
2018-07-10T08:29:26.592Z,14.88
2018-07-10T08:30:26.827Z,14.93
2018-07-10T08:31:26.285Z,14.8
2018-07-10T08:32:26.811Z,14.69
2018-07-10T08:33:27.151Z,14.74
2018-07-10T08:34:26.771Z,14.69
2018-07-10T08:35:26.501Z,14.71
2018-07-10T08:36:26.486Z,14.69
2018-07-10T08:37:26.738Z,14.78
2018-07-10T08:38:26.457Z,14.78
2018-07-10T08:39:26.176Z,14.86
2018-07-10T08:40:26.168Z,14.88
2018-07-10T08:41:26.151Z,14.88
2018-07-10T08:42:26.403Z,14.86
2018-07-10T08:43:26.665Z,14.94
2018-07-10T08:44:26.636Z,14.9
2018-07-10T08:45:26.623Z,15.01
2018-07-10T08:46:26.609Z,14.93
2018-07-10T08:47:26.606Z,14.87
2018-07-10T08:48:26.055Z,14.75
2018-07-10T08:49:26.309Z,14.75
2018-07-10T08:50:26.295Z,14.67
2018-07-10T08:51:26.580Z,14.78
2018-07-10T08:52:26.532Z,14.8
2018-07-10T08:53:26.527Z,14.78
2018-07-10T08:54:26.253Z,14.87
2018-07-10T08:55:25.964Z,14.91
2018-07-10T08:56:26.494Z,14.84
2018-07-10T08:57:26.234Z,14.84
2018-07-10T08:58:26.451Z,14.87
2018-07-10T08:59:26.171Z,14.84
2018-07-10T09:00:26.171Z,14.93
2018-07-10T09:01:26.414Z,14.95
2018-07-10T09:02:26.129Z,15.05
2018-07-10T09:03:26.123Z,15.03
2018-07-10T09:04:26.375Z,15.01
2018-07-10T09:05:25.829Z,14.99
2018-07-10T09:06:26.431Z,15.03
2018-07-10T09:07:25.809Z,15.05
2018-07-10T09:08:26.323Z,15.17
2018-07-10T09:09:26.057Z,15.17
2018-07-10T09:10:26.033Z,15.23
2018-07-10T09:11:26.279Z,15.24
2018-07-10T09:12:26.010Z,15.27
2018-07-10T09:13:26.043Z,15.35
2018-07-10T09:14:26.245Z,15.36
2018-07-10T09:15:26.223Z,15.36
2018-07-10T09:16:25.945Z,15.42
2018-07-10T09:17:25.947Z,15.36
2018-07-10T09:18:26.186Z,15.36
2018-07-10T09:19:26.172Z,15.3
2018-07-10T09:20:26.156Z,15.36
2018-07-10T09:21:26.172Z,15.41
2018-07-10T09:22:25.888Z,15.43
2018-07-10T09:23:26.125Z,15.49
2018-07-10T09:24:25.851Z,15.42
2018-07-10T09:25:26.100Z,15.41
2018-07-10T09:26:25.816Z,15.51
2018-07-10T09:27:26.070Z,15.57
2018-07-10T09:28:26.055Z,15.52
2018-07-10T09:29:25.778Z,15.49
2018-07-10T09:30:26.034Z,15.49
2018-07-10T09:31:25.753Z,15.42
2018-07-10T09:32:26.004Z,15.6
2018-07-10T09:33:25.854Z,15.49
2018-07-10T09:34:25.987Z,15.43
2018-07-10T09:35:25.972Z,15.39
2018-07-10T09:36:25.694Z,15.43
2018-07-10T09:37:25.679Z,15.38
2018-07-10T09:38:25.934Z,15.39
2018-07-10T09:39:25.653Z,15.51
2018-07-10T09:40:25.645Z,15.48
2018-07-10T09:41:25.623Z,15.43
2018-07-10T09:42:25.616Z,15.41
2018-07-10T09:43:25.645Z,15.45
2018-07-10T09:44:26.111Z,15.43
2018-07-10T09:45:25.840Z,15.41
2018-07-10T09:46:25.566Z,15.49
2018-07-10T09:47:25.810Z,15.56
2018-07-10T09:48:25.531Z,15.49
2018-07-10T09:49:25.522Z,15.42
2018-07-10T09:50:25.707Z,15.39
2018-07-10T09:51:25.493Z,15.38
2018-07-10T09:52:25.481Z,15.39
2018-07-10T09:53:25.730Z,15.48
2018-07-10T09:54:25.733Z,15.56
2018-07-10T09:55:25.446Z,15.54
2018-07-10T09:56:25.175Z,15.59
2018-07-10T09:57:25.695Z,15.64
2018-07-10T09:58:25.679Z,15.67
2018-07-10T09:59:25.411Z,15.56
2018-07-10T10:00:25.642Z,15.56
2018-07-10T10:01:25.629Z,15.6
2018-07-10T10:02:25.622Z,15.57
2018-07-10T10:03:25.340Z,15.52
2018-07-10T10:04:25.412Z,15.46
2018-07-10T10:05:25.583Z,15.56
2018-07-10T10:06:25.306Z,15.54
2018-07-10T10:07:25.554Z,15.56
2018-07-10T10:08:25.736Z,15.52
2018-07-10T10:09:25.266Z,15.51
2018-07-10T10:10:25.249Z,15.43
2018-07-10T10:11:25.248Z,15.46
2018-07-10T10:12:25.226Z,15.45
2018-07-10T10:13:25.473Z,15.42
2018-07-10T10:14:24.939Z,15.49
2018-07-10T10:15:25.195Z,15.46
2018-07-10T10:16:25.177Z,15.52
2018-07-10T10:17:25.435Z,15.54
2018-07-10T10:18:24.886Z,15.51
2018-07-10T10:19:25.418Z,15.51
2018-07-10T10:20:25.389Z,15.61
2018-07-10T10:21:25.124Z,15.59
2018-07-10T10:22:25.102Z,15.54
2018-07-10T10:23:25.350Z,15.48
2018-07-10T10:24:25.081Z,15.45
2018-07-10T10:25:25.061Z,15.51
2018-07-10T10:26:24.782Z,15.48
2018-07-10T10:27:25.041Z,15.54
2018-07-10T10:28:25.021Z,15.51
2018-07-10T10:29:25.007Z,15.48
2018-07-10T10:30:25.198Z,15.52
2018-07-10T10:31:24.717Z,15.51
2018-07-10T10:32:24.979Z,15.54
2018-07-10T10:33:24.959Z,15.56
2018-07-10T10:34:24.948Z,15.56
2018-07-10T10:35:25.210Z,15.56
2018-07-10T10:36:25.181Z,15.63
2018-07-10T10:37:24.923Z,15.52
2018-07-10T10:38:24.892Z,15.52
2018-07-10T10:39:25.138Z,15.49
2018-07-10T10:40:24.603Z,15.6
2018-07-10T10:41:25.164Z,15.52
2018-07-10T10:42:25.112Z,15.6
2018-07-10T10:43:24.828Z,15.57
2018-07-10T10:44:25.086Z,15.7
2018-07-10T10:45:24.800Z,15.6
2018-07-10T10:46:24.787Z,15.52
2018-07-10T10:47:24.515Z,15.52
2018-07-10T10:48:24.757Z,15.52
2018-07-10T10:49:24.799Z,15.52
2018-07-10T10:50:25.007Z,15.59
2018-07-10T10:51:24.990Z,15.57
2018-07-10T10:52:24.454Z,15.57
2018-07-10T10:53:24.967Z,15.52
2018-07-10T10:54:24.423Z,15.56
2018-07-10T10:55:24.674Z,15.66
2018-07-10T10:56:24.924Z,15.66
2018-07-10T10:57:24.381Z,15.64
2018-07-10T10:58:24.372Z,15.61
2018-07-10T10:59:24.884Z,15.67
2018-07-10T11:00:24.341Z,15.61
2018-07-10T11:01:24.861Z,15.75
2018-07-10T11:02:24.984Z,15.68
2018-07-10T11:03:24.833Z,15.76
2018-07-10T11:04:24.558Z,15.82
2018-07-10T11:05:24.812Z,15.79
2018-07-10T11:06:24.798Z,15.79
2018-07-10T11:07:24.253Z,15.89
2018-07-10T11:08:24.506Z,15.88
2018-07-10T11:09:24.491Z,15.94
2018-07-10T11:10:24.740Z,16
2018-07-10T11:11:24.462Z,16.16
2018-07-10T11:12:24.196Z,16.15
2018-07-10T11:13:24.723Z,16.3
2018-07-10T11:14:24.694Z,16.26
2018-07-10T11:15:24.806Z,16.33
2018-07-10T11:16:24.673Z,16.37
2018-07-10T11:17:24.398Z,16.38
2018-07-10T11:18:24.112Z,16.42
2018-07-10T11:19:24.631Z,16.41
2018-07-10T11:20:24.352Z,16.38
2018-07-10T11:21:24.599Z,16.42
2018-07-10T11:22:24.337Z,16.38
2018-07-10T11:23:24.583Z,16.45
2018-07-10T11:24:24.301Z,16.52
2018-07-10T11:25:24.550Z,16.52
2018-07-10T11:26:24.285Z,16.42
2018-07-10T11:27:24.266Z,16.5
2018-07-10T11:28:24.252Z,16.48
2018-07-10T11:29:24.506Z,16.45
2018-07-10T11:30:24.269Z,16.5
2018-07-10T11:31:24.534Z,16.48
2018-07-10T11:32:24.209Z,16.35
2018-07-10T11:33:24.458Z,16.45
2018-07-10T11:34:24.187Z,16.37
2018-07-10T11:35:24.439Z,16.34
2018-07-10T11:36:23.895Z,16.52
2018-07-10T11:37:23.880Z,16.53
2018-07-10T11:38:24.404Z,16.6
2018-07-10T11:39:24.702Z,16.59
2018-07-10T11:40:23.846Z,16.58
2018-07-10T11:41:24.114Z,16.62
2018-07-10T11:42:24.092Z,16.77
2018-07-10T11:43:24.340Z,16.73
2018-07-10T11:44:24.321Z,16.71
2018-07-10T11:45:24.314Z,16.77
2018-07-10T11:46:23.775Z,16.75
2018-07-10T11:47:24.284Z,16.78
2018-07-10T11:48:24.276Z,16.88
2018-07-10T11:49:24.269Z,16.88
2018-07-10T11:50:24.193Z,16.99
2018-07-10T11:51:24.052Z,16.99
2018-07-10T11:52:24.231Z,17.1
2018-07-10T11:53:23.962Z,17.11
2018-07-10T11:54:24.211Z,17.18
2018-07-10T11:55:24.192Z,17.26
2018-07-10T11:56:24.185Z,17.29
2018-07-10T11:57:24.180Z,17.32
2018-07-10T11:58:24.159Z,17.32
2018-07-10T11:59:23.884Z,17.22
2018-07-10T12:00:24.138Z,17.25
2018-07-10T12:01:23.863Z,17.32
2018-07-10T12:02:23.858Z,17.26
2018-07-10T12:03:23.841Z,17.3
2018-07-10T12:04:24.096Z,17.29
2018-07-10T12:05:23.816Z,17.29
2018-07-10T12:06:23.809Z,17.33
2018-07-10T12:07:23.791Z,17.29
2018-07-10T12:08:24.045Z,17.36
2018-07-10T12:09:24.042Z,17.33
2018-07-10T12:10:23.767Z,17.35
2018-07-10T12:11:24.021Z,17.38
2018-07-10T12:12:24.000Z,17.47
2018-07-10T12:13:23.732Z,17.44
2018-07-10T12:14:23.994Z,17.53
2018-07-10T12:15:23.443Z,17.57
2018-07-10T12:16:23.693Z,17.62
2018-07-10T12:17:23.682Z,17.64
2018-07-10T12:18:23.722Z,17.76
2018-07-10T12:19:23.398Z,17.84
2018-07-10T12:20:23.922Z,17.91
2018-07-10T12:21:23.384Z,18.03
2018-07-10T12:22:23.893Z,18.21
2018-07-10T12:23:23.617Z,18.25
2018-07-10T12:24:23.612Z,18.43
2018-07-10T12:25:23.595Z,18.57
2018-07-10T12:26:23.582Z,18.57
2018-07-10T12:27:23.577Z,18.67
2018-07-10T12:28:23.837Z,18.62
2018-07-10T12:29:23.815Z,18.8
2018-07-10T12:30:23.547Z,18.83
2018-07-10T12:31:23.800Z,18.8
2018-07-10T12:32:23.524Z,18.7
2018-07-10T12:33:23.255Z,18.76
2018-07-10T12:34:23.771Z,18.79
2018-07-10T12:35:23.766Z,18.83
2018-07-10T12:36:23.754Z,18.82
2018-07-10T12:37:23.738Z,18.83
2018-07-10T12:38:23.735Z,18.95
2018-07-10T12:39:23.724Z,19.14
2018-07-10T12:40:23.448Z,19.17
2018-07-10T12:41:23.438Z,19.86
2018-07-10T12:42:23.431Z,20.47
2018-07-10T12:43:23.421Z,21.06
2018-07-10T12:44:23.674Z,21.39
2018-07-10T12:45:23.672Z,21.88
2018-07-10T12:46:23.396Z,22.09
2018-07-10T12:47:23.386Z,22.57
2018-07-10T12:48:23.643Z,22.8
2018-07-10T12:49:23.429Z,22.8
2018-07-10T12:50:23.371Z,22.57
2018-07-10T12:51:23.357Z,22.32
2018-07-10T12:52:23.361Z,21.98
2018-07-10T12:53:23.355Z,21.95
2018-07-10T12:54:23.348Z,22.07